Time;durP1;ratioP1;P1;durP2;ratioP2;P2;SDS_P1;SDS_P2;PMS_P1;PMS_P2;Temp;Humidity;BMP_temperature;BMP_pressure;BME280_temperature;BME280_humidity;BME280_pressure;Samples;Min_cycle;Max_cycle;Signal;HPM_P1;HPM_P2
2023/01/19 00:01:13;;;;;;;28.38;4.35;;;;;;;11.96;73.24;98832.25;3153600;28;20155;-73
2023/01/19 00:02:46;;;;;;;28.08;4.60;;;;;;;11.95;73.61;98826.19;3153342;28;20595;-73
2023/01/19 00:04:18;;;;;;;28.65;4.97;;;;;;;11.94;73.76;98810.63;3153682;28;20052;-74
2023/01/19 00:05:49;;;;;;;39.33;6.82;;;;;;;11.86;73.99;98807.69;3153609;28;20052;-74
2023/01/19 00:07:21;;;;;;;30.80;6.13;;;;;;;11.84;74.37;98816.44;3153586;28;20216;-74
2023/01/19 00:08:54;;;;;;;26.85;5.55;;;;;;;11.80;75.40;98824.53;3153452;28;20552;-76
2023/01/19 00:10:26;;;;;;;;;;;;;;;11.72;75.72;98819.03;3153878;28;20056;-75
2023/01/19 00:11:58;;;;;;;21.42;3.42;;;;;;;11.68;76.56;98841.00;3153601;28;19989;-75
2023/01/19 00:13:30;;;;;;;28.63;4.65;;;;;;;11.70;76.21;98846.97;3153660;28;20059;-75
2023/01/19 00:15:02;;;;;;;29.85;4.60;;;;;;;11.73;75.97;98849.38;3153313;28;20232;-75
2023/01/19 00:16:34;;;;;;;25.33;5.07;;;;;;;11.77;75.89;98849.09;3153204;28;20109;-74
2023/01/19 00:18:05;;;;;;;30.95;4.45;;;;;;;11.79;75.76;98839.38;3153356;28;20083;-75
2023/01/19 00:19:37;;;;;;;39.00;4.95;;;;;;;11.80;75.66;98829.75;3153270;28;20223;-75
2023/01/19 00:21:09;;;;;;;32.65;4.95;;;;;;;11.77;76.04;98825.59;3153182;28;20565;-75
2023/01/19 00:22:41;;;;;;;38.03;6.95;;;;;;;11.73;76.63;98839.75;3153504;28;20056;-75
2023/01/19 00:24:14;;;;;;;37.55;5.03;;;;;;;11.71;76.57;98844.28;3153234;28;20093;-75
2023/01/19 00:25:48;;;;;;;30.30;4.72;;;;;;;11.69;76.73;98833.09;3152760;28;20052;-75
2023/01/19 00:27:20;;;;;;;35.42;5.95;;;;;;;11.65;76.82;98802.91;3153500;28;20094;-76
2023/01/19 00:28:54;;;;;;;24.55;4.40;;;;;;;11.55;77.58;98797.47;3154173;28;20055;-75
2023/01/19 00:30:25;;;;;;;32.60;4.63;;;;;;;11.49;77.84;98825.72;3150215;28;20504;-76
2023/01/19 00:31:57;;;;;;;27.25;4.35;;;;;;;11.49;77.70;98836.97;3153377;28;20048;-76
2023/01/19 00:33:29;;;;;;;27.85;4.07;;;;;;;11.50;77.92;98851.69;3153060;28;20048;-73
2023/01/19 00:35:01;;;;;;;26.08;4.30;;;;;;;11.51;77.57;98853.38;3153279;28;20101;-75
2023/01/19 00:36:34;;;;;;;35.45;5.05;;;;;;;11.55;77.59;98852.22;3153224;28;20059;-75
2023/01/19 00:38:05;;;;;;;38.90;4.67;;;;;;;11.54;77.59;98850.56;3155261;28;20059;-74
2023/01/19 00:39:39;;;;;;;27.42;4.57;;;;;;;11.52;77.51;98855.03;3153138;28;20371;-74
2023/01/19 00:41:10;;;;;;;;;;;;;;;11.47;77.08;98862.31;3153650;28;20546;-73
2023/01/19 00:42:43;;;;;;;27.25;5.15;;;;;;;11.44;77.51;98862.50;3152810;28;19988;-73
2023/01/19 00:44:14;;;;;;;28.53;4.90;;;;;;;11.43;77.40;98868.66;3151934;28;20160;-74
2023/01/19 00:45:46;;;;;;;36.13;5.15;;;;;;;11.45;77.50;98852.94;3152848;28;20391;-73
2023/01/19 00:47:17;;;;;;;34.20;5.65;;;;;;;11.42;77.53;98848.75;3153321;28;20109;-75
2023/01/19 00:48:49;;;;;;;24.30;4.43;;;;;;;11.39;77.94;98846.34;3148574;28;20687;-75
2023/01/19 00:50:20;;;;;;;31.40;4.63;;;;;;;11.34;77.91;98841.41;3152894;28;20101;-75
2023/01/19 00:51:52;;;;;;;29.83;4.57;;;;;;;11.43;77.73;98855.63;3152836;28;20058;-75
2023/01/19 00:53:24;;;;;;;30.13;5.38;;;;;;;11.41;77.44;98841.84;3152503;28;20303;-75
2023/01/19 00:54:57;;;;;;;35.72;4.85;;;;;;;11.43;77.49;98842.59;3152615;28;20492;-75
2023/01/19 00:56:29;;;;;;;34.97;5.68;;;;;;;11.41;77.47;98849.66;3152352;28;20048;-75
2023/01/19 00:58:02;;;;;;;39.33;4.82;;;;;;;11.43;77.35;98863.44;3152171;28;20490;-74
2023/01/19 00:59:34;;;;;;;26.23;4.95;;;;;;;11.42;76.94;98859.19;3152832;28;20548;-74
2023/01/19 01:01:06;;;;;;;25.63;4.55;;;;;;;11.42;77.26;98853.97;3152426;28;20376;-74
2023/01/19 01:02:38;;;;;;;30.50;5.22;;;;;;;11.43;77.01;98855.63;3152925;28;20523;-74
2023/01/19 01:04:11;;;;;;;36.37;4.87;;;;;;;11.41;77.11;98846.22;3152821;28;20127;-75
2023/01/19 01:05:43;;;;;;;37.17;5.97;;;;;;;11.38;77.50;98861.13;3153025;28;20318;-74
2023/01/19 01:07:14;;;;;;;35.70;5.35;;;;;;;11.31;77.14;98836.38;3152641;28;20047;-74
2023/01/19 01:08:47;;;;;;;30.33;5.78;;;;;;;11.36;77.19;98860.41;3152872;28;20073;-75
2023/01/19 01:10:21;;;;;;;24.88;4.63;;;;;;;11.35;77.04;98853.50;3147108;28;20106;-74
2023/01/19 01:11:53;;;;;;;29.63;5.70;;;;;;;11.34;77.11;98851.00;3145457;28;20044;-75
2023/01/19 01:13:25;;;;;;;32.28;5.68;;;;;;;11.31;77.01;98851.19;3152664;28;20356;-75
2023/01/19 01:14:57;;;;;;;24.98;5.78;;;;;;;11.26;77.19;98855.84;3152503;28;20512;-75
2023/01/19 01:16:28;;;;;;;30.85;6.07;;;;;;;11.23;76.91;98856.03;3152689;28;20051;-74
2023/01/19 01:18:00;;;;;;;27.67;4.25;;;;;;;11.21;77.23;98847.47;3152578;28;20055;-74
2023/01/19 01:19:31;;;;;;;26.70;4.40;;;;;;;11.19;77.20;98841.53;3152624;28;20083;-74
2023/01/19 01:21:05;;;;;;;29.77;5.15;;;;;;;11.15;77.16;98857.38;3152649;28;20541;-74
2023/01/19 01:22:38;;;;;;;;;;;;;;;11.10;77.13;98855.97;3152445;28;20052;-74
2023/01/19 01:24:10;;;;;;;28.92;4.50;;;;;;;11.09;77.15;98842.13;3140108;28;20371;-75
2023/01/19 01:25:45;;;;;;;36.20;5.75;;;;;;;11.10;77.17;98843.78;3152473;28;20048;-75
2023/01/19 01:27:17;;;;;;;32.25;5.25;;;;;;;11.05;77.33;98856.25;3152278;28;20502;-75
2023/01/19 01:28:49;;;;;;;34.00;4.32;;;;;;;11.03;77.46;98852.94;3141027;28;20522;-74
2023/01/19 01:30:21;;;;;;;42.80;4.97;;;;;;;11.02;77.57;98850.41;3151061;28;20158;-75
2023/01/19 01:31:53;;;;;;;36.50;5.28;;;;;;;11.00;77.96;98842.66;3152455;28;20043;-75
2023/01/19 01:33:26;;;;;;;29.25;4.53;;;;;;;10.98;78.03;98852.38;3152797;28;20080;-74
2023/01/19 01:34:58;;;;;;;37.65;5.35;;;;;;;10.99;78.09;98856.63;3152596;28;20056;-74
2023/01/19 01:36:32;;;;;;;37.35;4.75;;;;;;;11.01;77.73;98859.16;3152456;28;20100;-74
2023/01/19 01:38:04;;;;;;;22.65;4.75;;;;;;;11.01;78.11;98853.97;3154327;28;20044;-74
2023/01/19 01:39:36;;;;;;;34.35;4.75;;;;;;;10.97;78.11;98840.25;3152788;28;20551;-74
2023/01/19 01:41:09;;;;;;;26.52;4.53;;;;;;;10.82;78.79;98829.03;3152561;28;20051;-74
2023/01/19 01:42:41;;;;;;;30.90;3.80;;;;;;;10.87;78.95;98849.59;3152329;28;20509;-74
2023/01/19 01:44:48;;;;;;;37.95;4.80;;;;;;;10.83;79.16;98850.72;3152255;28;20056;-75
2023/01/19 01:46:20;;;;;;;28.17;4.63;;;;;;;10.69;79.73;98834.16;3147705;28;20048;-75
2023/01/19 01:47:54;;;;;;;27.65;4.20;;;;;;;10.79;79.94;98862.22;3152348;28;20044;-75
2023/01/19 01:49:26;;;;;;;33.85;5.78;;;;;;;10.78;79.90;98860.56;3147445;28;20129;-74
2023/01/19 01:52:55;;;;;;;33.67;4.38;;;;;;;10.74;79.77;98853.84;3151967;28;20044;-75
2023/01/19 01:54:31;;;;;;;37.88;4.32;;;;;;;10.85;79.44;98874.88;3151915;28;20073;-75
2023/01/19 01:56:06;;;;;;;27.13;5.25;;;;;;;10.86;79.60;98881.78;3151379;28;20051;-73
2023/01/19 01:57:45;;;;;;;30.20;4.85;;;;;;;10.87;79.39;98878.25;3152543;28;20052;-75
2023/01/19 01:59:25;;;;;;;39.67;4.93;;;;;;;10.91;79.32;98884.91;3152354;28;20056;-77
2023/01/19 02:02:53;;;;;;;41.47;5.65;;;;;;;10.89;79.38;98881.59;3152144;28;20044;-77
2023/01/19 02:04:25;;;;;;;35.25;4.88;;;;;;;10.89;78.91;98879.81;3152341;28;20956;-77
2023/01/19 02:06:01;;;;;;;32.95;4.75;;;;;;;10.90;79.11;98883.25;3151850;28;20104;-75
2023/01/19 02:13:19;;;;;;;30.95;4.50;;;;;;;10.77;79.03;98872.75;3152146;28;20798;-74
2023/01/19 02:14:50;;;;;;;33.95;4.78;;;;;;;10.78;79.37;98882.25;3152211;28;20102;-74
2023/01/19 02:16:22;;;;;;;39.22;4.97;;;;;;;10.77;79.07;98885.78;3151913;28;20051;-77
2023/01/19 02:17:53;;;;;;;35.67;5.28;;;;;;;10.79;79.33;98872.66;3151973;28;20076;-77
2023/01/19 02:19:40;;;;;;;36.53;5.13;;;;;;;10.77;79.46;98864.13;3151500;28;20063;-76
2023/01/19 02:21:19;;;;;;;30.42;4.18;;;;;;;10.78;79.49;98868.38;3152358;28;20052;-77
2023/01/19 02:22:52;;;;;;;29.52;3.90;;;;;;;10.80;79.09;98864.75;3151898;28;20058;-75
2023/01/19 02:24:26;;;;;;;28.23;5.55;;;;;;;10.79;79.26;98862.22;3151940;28;20082;-75
2023/01/19 02:25:58;;;;;;;41.28;5.53;;;;;;;10.79;79.39;98873.47;3149382;28;20581;-73
2023/01/19 02:27:32;;;;;;;38.87;6.60;;;;;;;10.79;79.15;98870.03;3140130;28;20106;-74
2023/01/19 02:29:07;;;;;;;45.22;5.18;;;;;;;10.77;79.03;98869.31;3152233;28;20313;-74
2023/01/19 02:30:40;;;;;;;36.08;6.57;;;;;;;10.78;79.27;98868.38;3139423;28;20059;-74
2023/01/19 02:32:12;;;;;;;28.88;4.72;;;;;;;10.80;78.85;98887.38;3151586;28;20060;-74
2023/01/19 02:33:44;;;;;;;33.22;6.13;;;;;;;10.80;78.96;98887.38;3152342;28;20079;-75
2023/01/19 02:35:16;;;;;;;39.50;6.28;;;;;;;10.79;78.86;98878.69;3153560;28;20616;-75
2023/01/19 02:36:52;;;;;;;40.78;4.65;;;;;;;10.82;78.38;98862.03;3152039;28;20056;-75
2023/01/19 02:38:27;;;;;;;30.77;4.78;;;;;;;10.81;78.56;98852.56;3148951;28;20517;-75
2023/01/19 02:40:02;;;;;;;31.52;4.55;;;;;;;10.82;78.16;98838.59;3151786;28;20070;-75
2023/01/19 02:41:40;;;;;;;28.05;3.67;;;;;;;10.82;78.02;98831.63;3151807;28;20060;-75
2023/01/19 02:43:12;;;;;;;29.13;4.68;;;;;;;10.85;77.79;98844.47;3151967;28;20089;-74
2023/01/19 02:44:47;;;;;;;29.60;5.93;;;;;;;10.90;77.42;98855.44;3151996;28;20127;-75
2023/01/19 02:46:19;;;;;;;34.35;5.00;;;;;;;10.92;77.10;98863.16;3151739;28;20304;-75
2023/01/19 02:47:52;;;;;;;33.08;4.72;;;;;;;10.97;76.71;98853.28;3151929;28;20111;-75
2023/01/19 02:49:27;;;;;;;33.88;4.47;;;;;;;11.01;76.28;98870.41;3147794;28;20052;-75
2023/01/19 02:51:03;;;;;;;30.90;4.22;;;;;;;11.02;76.05;98864.25;3151811;28;20051;-74
2023/01/19 02:52:34;;;;;;;34.22;4.60;;;;;;;11.03;75.68;98852.94;3151934;28;20051;-74
2023/01/19 02:54:19;;;;;;;31.40;4.95;;;;;;;10.95;75.39;98851.72;3151676;28;20122;-73
2023/01/19 02:55:56;;;;;;;30.63;3.92;;;;;;;11.07;75.36;98882.22;3151541;28;20199;-75
2023/01/19 02:57:51;;;;;;;32.75;4.50;;;;;;;11.08;74.69;98863.06;3145584;28;20129;-75
2023/01/19 02:59:31;;;;;;;29.38;5.20;;;;;;;11.09;74.87;98868.19;3148600;28;20048;-75
2023/01/19 03:01:12;;;;;;;34.40;3.80;;;;;;;11.13;74.59;98877.47;3151425;28;20062;-75
2023/01/19 03:02:58;;;;;;;47.30;6.72;;;;;;;11.16;74.37;98879.88;3151598;28;20128;-75
2023/01/19 03:04:39;;;;;;;26.33;4.35;;;;;;;11.18;74.19;98900.66;3151721;28;20199;-74
2023/01/19 03:06:20;;;;;;;35.97;3.97;;;;;;;11.16;74.02;98899.91;3151465;28;20048;-74
2023/01/19 03:07:58;;;;;;;29.52;4.15;;;;;;;11.16;74.42;98885.09;3153078;28;20147;-74
2023/01/19 03:09:37;;;;;;;28.83;4.75;;;;;;;11.13;74.49;98892.28;3154159;28;20078;-74
2023/01/19 03:11:12;;;;;;;23.27;3.35;;;;;;;11.03;74.54;98881.59;3154325;28;20105;-77
2023/01/19 03:12:50;;;;;;;26.08;4.18;;;;;;;11.11;74.28;98897.56;3153936;28;20056;-77
2023/01/19 03:14:25;;;;;;;35.90;5.03;;;;;;;11.06;74.56;98880.53;3153373;28;20052;-77
2023/01/19 03:16:02;;;;;;;28.77;4.55;;;;;;;11.08;74.65;98889.09;3153582;28;20083;-77
2023/01/19 03:17:36;;;;;;;26.13;4.05;;;;;;;11.07;74.51;98884.84;3154321;28;20056;-76
2023/01/19 03:19:12;;;;;;;31.75;4.15;;;;;;;11.06;74.79;98898.78;3154264;28;20439;-76
2023/01/19 03:20:45;;;;;;;29.80;5.15;;;;;;;11.01;74.46;98896.47;3153979;28;20059;-75
2023/01/19 03:22:21;;;;;;;36.53;4.53;;;;;;;10.99;74.55;98903.53;3153932;28;20200;-76
2023/01/19 03:23:57;;;;;;;32.45;4.40;;;;;;;10.97;74.57;98888.91;3153803;28;20067;-77
2023/01/19 03:25:34;;;;;;;24.80;3.50;;;;;;;10.90;75.06;98902.31;3154268;28;20401;-76
2023/01/19 03:27:14;;;;;;;41.13;4.90;;;;;;;10.88;75.29;98895.53;3153954;28;20071;-77
2023/01/19 03:28:48;;;;;;;26.77;4.57;;;;;;;10.88;75.09;98874.69;3153712;28;20067;-78
2023/01/19 03:30:24;;;;;;;28.67;4.63;;;;;;;10.87;75.58;98880.84;3153852;28;20154;-76
2023/01/19 03:32:01;;;;;;;34.95;4.65;;;;;;;10.87;75.41;98896.47;3153920;28;20052;-76
2023/01/19 03:33:39;;;;;;;32.67;4.28;;;;;;;10.86;75.43;98898.25;3153773;28;20056;-76
2023/01/19 03:35:14;;;;;;;24.45;3.83;;;;;;;10.85;75.21;98886.13;3154000;28;20520;-74
2023/01/19 03:36:49;;;;;;;40.42;5.00;;;;;;;10.82;75.58;98870.69;3153566;28;20056;-74
2023/01/19 03:38:26;;;;;;;44.83;4.47;;;;;;;10.78;75.84;98881.41;3150999;28;20048;-74
2023/01/19 03:39:58;;;;;;;31.83;4.72;;;;;;;10.76;75.62;98883.25;3153820;28;20113;-75
2023/01/19 03:41:34;;;;;;;40.65;5.00;;;;;;;10.75;75.62;98889.41;3153814;28;20143;-75
2023/01/19 03:43:09;;;;;;;36.30;5.22;;;;;;;10.76;75.62;98893.66;3153681;28;20131;-74
2023/01/19 03:44:43;;;;;;;34.10;4.40;;;;;;;10.78;75.62;98894.44;3153548;28;20158;-74
2023/01/19 03:46:17;;;;;;;31.85;5.28;;;;;;;10.76;75.95;98898.88;3153714;28;20558;-73
2023/01/19 03:47:49;;;;;;;32.13;4.55;;;;;;;10.72;75.90;98913.03;3153799;28;20079;-75
2023/01/19 03:49:22;;;;;;;21.30;3.50;;;;;;;10.72;76.04;98905.22;3149009;28;20074;-75
2023/01/19 03:50:55;;;;;;;27.17;4.22;;;;;;;10.68;75.78;98897.59;3153700;28;20070;-74
2023/01/19 03:52:29;;;;;;;40.03;4.53;;;;;;;10.65;76.04;98891.72;3154075;28;20052;-74
2023/01/19 03:54:00;;;;;;;28.92;3.80;;;;;;;10.65;76.13;98873.50;3153493;28;20055;-73
2023/01/19 03:55:32;;;;;;;45.70;5.13;;;;;;;10.61;75.99;98887.63;3153659;28;20391;-74
2023/01/19 03:57:03;;;;;;;29.45;5.22;;;;;;;10.59;76.34;98902.47;3153928;28;20435;-74
2023/01/19 03:58:36;;;;;;;30.30;3.97;;;;;;;10.57;76.43;98899.16;3153512;28;20125;-74
2023/01/19 04:00:10;;;;;;;35.78;3.90;;;;;;;10.53;76.41;98902.84;3153096;28;20504;-74
2023/01/19 04:01:42;;;;;;;28.13;3.95;;;;;;;10.50;76.31;98898.69;3153822;28;20051;-73
2023/01/19 04:03:16;;;;;;;28.73;4.60;;;;;;;10.50;76.34;98901.28;3153512;28;20056;-74
2023/01/19 04:04:48;;;;;;;20.63;5.07;;;;;;;10.50;76.45;98913.44;3153662;28;20475;-74
2023/01/19 04:06:21;;;;;;;42.58;4.88;;;;;;;10.49;76.38;98925.63;3153615;28;20117;-73
2023/01/19 04:07:52;;;;;;;29.25;4.00;;;;;;;10.46;76.33;98918.84;3153117;28;20051;-75
2023/01/19 04:09:24;;;;;;;19.25;4.90;;;;;;;10.41;76.46;98912.22;3153690;28;20091;-74
2023/01/19 04:10:57;;;;;;;34.40;5.97;;;;;;;10.41;76.82;98918.28;3144777;28;20114;-75
2023/01/19 04:12:29;;;;;;;31.05;5.30;;;;;;;10.40;76.45;98932.22;3153526;28;20055;-76
2023/01/19 04:14:03;;;;;;;24.02;4.72;;;;;;;10.38;76.82;98912.41;3153132;28;20143;-75
2023/01/19 04:15:35;;;;;;;36.88;5.80;;;;;;;10.31;76.63;98898.09;3153546;28;20055;-75
2023/01/19 04:17:05;;;;;;;37.88;6.43;;;;;;;10.29;76.74;98902.53;3153176;28;20072;-75
2023/01/19 04:18:38;;;;;;;33.75;5.05;;;;;;;10.31;76.57;98914.53;3152770;28;20052;-74
2023/01/19 04:20:10;;;;;;;37.15;5.20;;;;;;;10.32;76.64;98917.97;3152947;28;20051;-74
2023/01/19 04:21:42;;;;;;;24.10;4.45;;;;;;;10.31;76.83;98911.09;3153372;28;20044;-75
2023/01/19 04:23:13;;;;;;;25.05;4.22;;;;;;;10.29;76.54;98910.34;3152943;28;20044;-75
2023/01/19 04:24:45;;;;;;;28.42;4.72;;;;;;;10.28;76.64;98909.50;3153326;28;20055;-75
2023/01/19 04:26:16;;;;;;;24.88;4.78;;;;;;;10.27;76.80;98907.00;3153331;28;20525;-74
2023/01/19 04:27:52;;;;;;;28.20;4.28;;;;;;;10.28;76.57;98911.28;3153394;28;20637;-74
2023/01/19 04:29:40;;;;;;;31.40;4.55;;;;;;;10.29;76.71;98925.94;3154299;28;20521;-74
2023/01/19 04:31:11;;;;;;;36.55;5.30;;;;;;;10.27;76.84;98920.84;3147815;28;20049;-75
2023/01/19 04:32:43;;;;;;;24.88;4.80;;;;;;;10.29;76.64;98913.78;3143826;28;20509;-75
2023/01/19 04:34:15;;;;;;;33.28;5.03;;;;;;;10.31;76.64;98918.91;3153215;28;20155;-76
2023/01/19 04:35:47;;;;;;;33.45;4.90;;;;;;;10.33;76.81;98922.25;3153225;28;20530;-75
2023/01/19 04:37:19;;;;;;;32.38;4.63;;;;;;;10.32;76.59;98911.00;3152913;28;20531;-75
2023/01/19 04:38:51;;;;;;;36.70;4.38;;;;;;;10.32;76.65;98915.38;3153097;28;20154;-73
2023/01/19 04:40:23;;;;;;;26.67;5.05;;;;;;;10.32;76.31;98913.59;3153239;28;20087;-74
2023/01/19 04:41:56;;;;;;;27.40;5.95;;;;;;;10.32;76.29;98916.19;3146463;28;20049;-75
2023/01/19 04:43:28;;;;;;;37.22;6.72;;;;;;;10.30;76.35;98907.66;3145570;28;20139;-74
2023/01/19 04:45:01;;;;;;;28.75;4.32;;;;;;;10.28;76.74;98904.31;3153009;28;20440;-74
2023/01/19 04:46:33;;;;;;;29.23;6.40;;;;;;;10.24;76.64;98905.38;3152982;28;20056;-74
2023/01/19 04:48:05;;;;;;;30.77;5.68;;;;;;;10.22;77.08;98913.25;3152315;28;20805;-75
2023/01/19 04:49:37;;;;;;;40.17;6.55;;;;;;;10.24;76.87;98926.19;3143161;28;20103;-75
2023/01/19 04:51:09;;;;;;;33.50;6.10;;;;;;;10.24;76.96;98931.41;3153068;28;20058;-75
2023/01/19 04:52:41;;;;;;;38.65;6.65;;;;;;;10.21;76.59;98918.56;3152595;28;20079;-75
2023/01/19 04:54:13;;;;;;;32.53;5.55;;;;;;;10.18;77.04;98910.94;3152845;28;20109;-75
2023/01/19 04:55:45;;;;;;;33.75;5.07;;;;;;;10.17;76.88;98904.88;3153025;28;20053;-74
2023/01/19 04:57:17;;;;;;;34.30;5.03;;;;;;;10.18;77.06;98916.16;3152948;28;20548;-74
2023/01/19 04:58:49;;;;;;;34.08;5.03;;;;;;;10.17;76.94;98920.50;3153161;28;20059;-74
2023/01/19 05:00:22;;;;;;;33.92;6.13;;;;;;;10.17;76.67;98920.50;3152349;28;20060;-74
2023/01/19 05:01:54;;;;;;;28.95;7.20;;;;;;;10.16;76.78;98924.03;3152586;28;20520;-73
2023/01/19 05:03:25;;;;;;;38.80;5.90;;;;;;;10.15;76.91;98932.78;3153113;28;20135;-73
2023/01/19 05:04:58;;;;;;;33.45;6.75;;;;;;;10.13;76.58;98937.22;3152637;28;20059;-73
2023/01/19 05:06:29;;;;;;;27.75;4.88;;;;;;;10.13;76.65;98933.78;3152565;28;20052;-74
2023/01/19 05:08:01;;;;;;;27.73;5.35;;;;;;;10.13;76.86;98924.19;3151806;28;20067;-74
2023/01/19 05:09:34;;;;;;;39.47;6.05;;;;;;;10.11;76.82;98904.41;3152868;28;20052;-74
2023/01/19 05:11:06;;;;;;;35.90;5.17;;;;;;;10.06;76.85;98909.88;3146792;28;20172;-74
2023/01/19 05:12:37;;;;;;;26.00;5.10;;;;;;;10.10;76.72;98911.38;3152681;28;20471;-74
2023/01/19 05:14:09;;;;;;;28.52;5.50;;;;;;;10.09;76.42;98921.88;3152811;28;20087;-76
2023/01/19 05:15:42;;;;;;;33.80;5.43;;;;;;;10.08;76.51;98930.59;3152516;28;20097;-74
2023/01/19 05:17:14;;;;;;;;;;;;;;;10.01;76.53;98936.16;3153157;28;20105;-75
2023/01/19 05:18:44;;;;;;;32.42;5.10;;;;;;;9.96;76.96;98932.97;3152462;28;19924;-73
2023/01/19 05:20:17;;;;;;;40.92;5.18;;;;;;;10.01;76.62;98935.31;3150834;28;20204;-74
2023/01/19 05:21:49;;;;;;;29.40;5.37;;;;;;;9.96;76.61;98921.72;3145197;28;20630;-75
2023/01/19 05:23:21;;;;;;;28.52;5.40;;;;;;;10.02;76.92;98923.97;3139768;28;20122;-71
2023/01/19 05:24:52;;;;;;;34.25;6.97;;;;;;;10.03;76.58;98925.66;3147855;28;20051;-72
2023/01/19 05:26:24;;;;;;;32.83;5.80;;;;;;;10.03;76.52;98933.47;3151559;28;20052;-72
2023/01/19 05:27:56;;;;;;;33.63;5.93;;;;;;;10.01;76.36;98930.94;3152207;28;20066;-72
2023/01/19 05:29:28;;;;;;;51.40;9.18;;;;;;;9.97;76.32;98933.81;3152273;28;20071;-72
2023/01/19 05:31:01;;;;;;;36.00;5.57;;;;;;;9.92;76.87;98933.22;3151411;28;20445;-75
2023/01/19 05:32:33;;;;;;;;;;;;;;;9.91;76.58;98949.75;3153013;28;20051;-71
2023/01/19 05:34:04;;;;;;;41.70;5.95;;;;;;;9.87;76.97;98935.25;3152259;28;20015;-74
2023/01/19 05:35:36;;;;;;;40.47;5.97;;;;;;;9.88;76.63;98937.78;3148085;28;20056;-75
2023/01/19 05:37:08;;;;;;;80.03;32.63;;;;;;;9.91;76.69;98941.94;3153104;28;20131;-71
2023/01/19 05:38:40;;;;;;;53.60;17.27;;;;;;;9.96;76.95;98940.75;3151347;28;20116;-72
2023/01/19 05:40:13;;;;;;;101.40;43.17;;;;;;;9.99;76.51;98935.38;3151999;28;20044;-68
2023/01/19 05:41:45;;;;;;;43.17;7.75;;;;;;;10.02;76.67;98931.78;3152069;28;20055;-74
2023/01/19 05:43:17;;;;;;;47.83;8.43;;;;;;;10.01;76.47;98925.75;3152241;28;20552;-73
2023/01/19 05:44:49;;;;;;;34.47;6.57;;;;;;;10.03;76.58;98946.47;3152296;28;20056;-74
2023/01/19 05:46:23;;;;;;;91.22;26.10;;;;;;;10.06;76.46;98941.09;3152472;28;20601;-68
2023/01/19 05:47:55;;;;;;;48.00;9.90;;;;;;;10.07;76.11;98953.16;3152420;28;20048;-73
2023/01/19 05:49:27;;;;;;;39.20;7.70;;;;;;;10.10;76.03;98953.00;3148870;28;20075;-76
2023/01/19 05:51:00;;;;;;;33.30;6.47;;;;;;;10.13;75.87;98950.22;3152099;28;20058;-74
2023/01/19 05:52:32;;;;;;;38.67;6.03;;;;;;;10.17;76.04;98954.31;3152108;28;20105;-75
2023/01/19 05:54:04;;;;;;;43.45;6.80;;;;;;;10.21;75.67;98955.84;3152204;28;20048;-76
2023/01/19 05:55:36;;;;;;;40.10;7.15;;;;;;;10.27;75.40;98948.66;3152289;28;20109;-75
2023/01/19 05:57:08;;;;;;;40.17;8.18;;;;;;;10.20;75.28;98933.34;3151662;28;20047;-74
2023/01/19 05:58:39;;;;;;;47.92;6.85;;;;;;;10.32;74.93;98955.22;3151758;28;20135;-75
2023/01/19 06:00:12;;;;;;;40.35;8.25;;;;;;;10.34;74.65;98969.00;3151897;28;20051;-71
2023/01/19 06:01:45;;;;;;;48.03;7.93;;;;;;;10.35;74.94;98972.44;3152195;28;20050;-76
2023/01/19 06:03:17;;;;;;;50.42;7.68;;;;;;;10.33;74.60;98963.91;3151343;28;20539;-75
2023/01/19 06:04:49;;;;;;;27.58;5.95;;;;;;;10.33;74.90;98974.31;3151561;28;20159;-69
2023/01/19 06:06:21;;;;;;;45.35;7.13;;;;;;;10.34;74.92;98982.00;3151921;28;20138;-70
2023/01/19 06:07:56;;;;;;;46.33;7.90;;;;;;;10.33;74.75;98989.94;3151893;28;20047;-73
2023/01/19 06:09:37;;;;;;;33.28;7.63;;;;;;;10.29;74.99;98986.63;3142580;28;20111;-71
2023/01/19 06:11:09;;;;;;;41.33;8.20;;;;;;;10.25;74.76;98961.69;3147849;28;20054;-72
2023/01/19 06:12:41;;;;;;;39.15;7.40;;;;;;;10.27;74.68;98961.66;3147806;28;20051;-72
2023/01/19 06:14:13;;;;;;;36.25;7.75;;;;;;;10.28;74.96;98982.38;3151146;28;20043;-70
2023/01/19 06:15:45;;;;;;;39.30;7.47;;;;;;;10.29;74.69;98980.59;3150865;28;20051;-72
2023/01/19 06:17:19;;;;;;;32.38;7.93;;;;;;;10.29;74.98;98970.19;3151248;28;20180;-73
2023/01/19 06:18:51;;;;;;;35.42;6.18;;;;;;;10.28;74.89;98977.16;3151621;28;20058;-73
2023/01/19 06:20:23;;;;;;;41.75;7.45;;;;;;;10.28;74.78;98971.13;3151307;28;20056;-71
2023/01/19 06:21:55;;;;;;;45.67;7.55;;;;;;;10.29;74.76;98976.22;3151426;28;20127;-73
2023/01/19 06:23:29;;;;;;;45.30;7.03;;;;;;;10.32;75.01;98976.06;3151597;28;20547;-73
2023/01/19 06:25:01;;;;;;;36.65;9.30;;;;;;;10.33;74.87;98976.91;3151694;28;20084;-73
2023/01/19 06:26:33;;;;;;;40.17;6.90;;;;;;;10.36;74.57;98969.75;3150536;28;20087;-71
2023/01/19 06:28:05;;;;;;;50.45;8.60;;;;;;;10.39;74.81;98964.38;3151474;28;20051;-71
2023/01/19 06:29:37;;;;;;;29.80;7.40;;;;;;;10.43;74.64;98973.69;3151897;28;20062;-74
2023/01/19 06:31:09;;;;;;;33.95;7.75;;;;;;;10.51;74.70;98970.63;3151826;28;20098;-75
2023/01/19 06:32:42;;;;;;;49.95;17.30;;;;;;;10.56;74.74;98968.63;3151077;28;20048;-72
2023/01/19 06:34:14;;;;;;;;;;;;;;;10.58;74.36;98966.75;3150811;28;20105;-72
2023/01/19 06:35:48;;;;;;;60.10;10.68;;;;;;;10.61;74.24;98966.56;3142586;28;19945;-75
2023/01/19 06:37:20;;;;;;;63.67;14.98;;;;;;;10.68;74.18;98972.28;3155307;28;20083;-68
2023/01/19 06:38:52;;;;;;;41.88;9.65;;;;;;;10.74;73.91;98981.47;3151709;28;20527;-73
2023/01/19 06:40:24;;;;;;;41.03;8.23;;;;;;;10.83;73.91;98981.78;3151862;28;20149;-71
2023/01/19 06:41:56;;;;;;;40.92;8.35;;;;;;;10.91;73.48;98996.94;3151809;28;20105;-73
2023/01/19 06:43:28;;;;;;;43.63;8.60;;;;;;;10.98;73.47;98992.22;3154573;28;20568;-71
2023/01/19 06:45:00;;;;;;;30.63;7.97;;;;;;;11.04;73.26;98994.44;3154421;28;20222;-67
2023/01/19 06:46:32;;;;;;;34.72;8.48;;;;;;;11.09;73.40;98989.78;3154055;28;20421;-70
2023/01/19 06:48:06;;;;;;;48.17;9.18;;;;;;;11.17;72.95;98984.94;3154220;28;20625;-73
2023/01/19 06:49:38;;;;;;;40.28;8.63;;;;;;;11.23;72.75;98994.16;3153165;28;20092;-72
2023/01/19 06:51:10;;;;;;;39.58;8.48;;;;;;;11.30;72.69;99009.34;3148718;28;20473;-72
2023/01/19 06:52:42;;;;;;;49.20;8.63;;;;;;;11.35;72.40;99007.28;3145505;28;20188;-72
2023/01/19 06:54:14;;;;;;;55.22;10.27;;;;;;;11.40;72.47;99001.81;3153207;28;20070;-71
2023/01/19 06:55:46;;;;;;;47.55;9.85;;;;;;;11.49;72.33;98998.63;3153534;28;20192;-71
2023/01/19 06:57:18;;;;;;;46.50;9.10;;;;;;;11.57;72.10;98996.41;3153337;28;20048;-69
2023/01/19 06:58:51;;;;;;;45.35;9.52;;;;;;;11.66;71.89;98989.78;3153223;28;20091;-72
2023/01/19 07:00:24;;;;;;;40.78;8.57;;;;;;;11.76;72.03;98984.81;3152625;28;20052;-73
2023/01/19 07:01:56;;;;;;;45.30;8.73;;;;;;;11.87;71.19;98987.59;3153488;28;20052;-73
2023/01/19 07:03:29;;;;;;;50.97;8.98;;;;;;;11.93;71.07;98983.78;3153171;28;20070;-74
2023/01/19 07:05:01;;;;;;;54.78;9.65;;;;;;;11.98;70.99;98990.38;3140892;28;20490;-72
2023/01/19 07:06:33;;;;;;;35.83;7.80;;;;;;;11.95;70.49;98977.53;3152708;28;20109;-71
2023/01/19 07:08:06;;;;;;;44.22;7.88;;;;;;;12.04;70.31;98987.38;3153455;28;20060;-74
2023/01/19 07:09:37;;;;;;;37.73;9.23;;;;;;;12.12;70.33;98993.84;3154507;28;20056;-71
2023/01/19 07:11:12;;;;;;;40.20;8.48;;;;;;;12.23;70.12;99001.84;3154063;28;20060;-72
2023/01/19 07:12:46;;;;;;;42.22;8.52;;;;;;;12.33;69.84;99000.28;3154218;28;20055;-72
2023/01/19 07:14:18;;;;;;;47.80;7.75;;;;;;;12.42;69.46;99004.94;3154067;28;20126;-74
2023/01/19 07:15:50;;;;;;;48.10;7.57;;;;;;;12.53;69.17;99010.28;3153953;28;20111;-72
2023/01/19 07:17:22;;;;;;;40.67;8.23;;;;;;;12.66;69.06;99010.31;3154353;28;20093;-73
2023/01/19 07:18:56;;;;;;;37.60;8.18;;;;;;;12.74;68.63;99012.41;3154242;28;20052;-73
2023/01/19 07:20:27;;;;;;;38.70;6.97;;;;;;;12.82;68.46;99006.69;3153765;28;20048;-71
2023/01/19 07:21:59;;;;;;;31.02;6.65;;;;;;;12.96;67.91;99012.66;3154006;28;20051;-71
2023/01/19 07:23:32;;;;;;;49.85;7.78;;;;;;;13.13;67.93;99008.03;3154266;28;20533;-71
2023/01/19 07:25:04;;;;;;;35.33;7.68;;;;;;;13.29;67.49;99010.50;3153989;28;20054;-71